sensor_id;sensor_type;location;lat;lon;timestamp;P1;durP1;ratioP1;P2;durP2;ratioP2
70787;SDS011;58391;47.752;19.100;2023-02-12T00:01:08;0.50;;;0.10;;
70787;SDS011;58391;47.752;19.100;2023-02-12T00:03:36;0.68;;;0.25;;
70787;SDS011;58391;47.752;19.100;2023-02-12T00:06:04;1.23;;;0.52;;
70787;SDS011;58391;47.752;19.100;2023-02-12T00:08:32;7.22;;;1.67;;
70787;SDS011;58391;47.752;19.100;2023-02-12T00:11:05;0.40;;;0.10;;
70787;SDS011;58391;47.752;19.100;2023-02-12T00:13:33;9.48;;;1.50;;
70787;SDS011;58391;47.752;19.100;2023-02-12T00:16:02;2.25;;;0.68;;
70787;SDS011;58391;47.752;19.100;2023-02-12T00:18:30;1.67;;;0.80;;
70787;SDS011;58391;47.752;19.100;2023-02-12T00:20:58;0.60;;;0.30;;
70787;SDS011;58391;47.752;19.100;2023-02-12T00:23:26;1.15;;;0.60;;
70787;SDS011;58391;47.752;19.100;2023-02-12T00:25:53;2.43;;;0.77;;
70787;SDS011;58391;47.752;19.100;2023-02-12T00:28:20;0.77;;;0.40;;
70787;SDS011;58391;47.752;19.100;2023-02-12T00:30:48;0.77;;;0.30;;
70787;SDS011;58391;47.752;19.100;2023-02-12T00:33:15;0.50;;;0.10;;
70787;SDS011;58391;47.752;19.100;2023-02-12T00:35:42;0.82;;;0.43;;
70787;SDS011;58391;47.752;19.100;2023-02-12T00:38:09;0.88;;;0.15;;
70787;SDS011;58391;47.752;19.100;2023-02-12T00:40:36;1.23;;;0.60;;
70787;SDS011;58391;47.752;19.100;2023-02-12T00:43:03;0.73;;;0.28;;
70787;SDS011;58391;47.752;19.100;2023-02-12T00:45:30;1.15;;;0.65;;
70787;SDS011;58391;47.752;19.100;2023-02-12T00:47:57;6.43;;;0.88;;
70787;SDS011;58391;47.752;19.100;2023-02-12T00:50:24;2.28;;;0.40;;
70787;SDS011;58391;47.752;19.100;2023-02-12T00:52:51;0.62;;;0.25;;
70787;SDS011;58391;47.752;19.100;2023-02-12T00:55:18;1.30;;;0.80;;
70787;SDS011;58391;47.752;19.100;2023-02-12T00:57:45;1.58;;;0.90;;
70787;SDS011;58391;47.752;19.100;2023-02-12T01:00:12;0.93;;;0.57;;
70787;SDS011;58391;47.752;19.100;2023-02-12T01:02:42;1.02;;;0.43;;
70787;SDS011;58391;47.752;19.100;2023-02-12T01:05:09;1.58;;;1.05;;
70787;SDS011;58391;47.752;19.100;2023-02-12T01:07:37;0.47;;;0.17;;
70787;SDS011;58391;47.752;19.100;2023-02-12T01:10:06;1.50;;;0.80;;
70787;SDS011;58391;47.752;19.100;2023-02-12T01:12:33;0.70;;;0.20;;
70787;SDS011;58391;47.752;19.100;2023-02-12T01:15:00;0.70;;;0.27;;
70787;SDS011;58391;47.752;19.100;2023-02-12T01:17:28;1.30;;;0.90;;
70787;SDS011;58391;47.752;19.100;2023-02-12T01:19:55;1.12;;;0.65;;
70787;SDS011;58391;47.752;19.100;2023-02-12T01:22:23;1.33;;;0.43;;
70787;SDS011;58391;47.752;19.100;2023-02-12T01:24:50;0.82;;;0.43;;
70787;SDS011;58391;47.752;19.100;2023-02-12T01:27:17;2.55;;;0.98;;
70787;SDS011;58391;47.752;19.100;2023-02-12T01:29:44;0.45;;;0.10;;
70787;SDS011;58391;47.752;19.100;2023-02-12T01:32:11;1.65;;;1.55;;
70787;SDS011;58391;47.752;19.100;2023-02-12T01:34:38;0.88;;;0.22;;
70787;SDS011;58391;47.752;19.100;2023-02-12T01:37:05;1.95;;;0.55;;
70787;SDS011;58391;47.752;19.100;2023-02-12T01:39:32;0.80;;;0.40;;
70787;SDS011;58391;47.752;19.100;2023-02-12T01:42:00;1.48;;;0.77;;
70787;SDS011;58391;47.752;19.100;2023-02-12T01:44:28;0.80;;;0.37;;
70787;SDS011;58391;47.752;19.100;2023-02-12T01:49:28;2.20;;;0.30;;
70787;SDS011;58391;47.752;19.100;2023-02-12T01:54:34;0.50;;;0.25;;
70787;SDS011;58391;47.752;19.100;2023-02-12T01:57:02;1.42;;;0.77;;
70787;SDS011;58391;47.752;19.100;2023-02-12T01:59:30;1.40;;;0.90;;
70787;SDS011;58391;47.752;19.100;2023-02-12T02:01:58;0.75;;;0.20;;
70787;SDS011;58391;47.752;19.100;2023-02-12T02:04:27;0.40;;;0.10;;
70787;SDS011;58391;47.752;19.100;2023-02-12T02:06:56;0.77;;;0.45;;
70787;SDS011;58391;47.752;19.100;2023-02-12T02:09:24;0.43;;;0.10;;
70787;SDS011;58391;47.752;19.100;2023-02-12T02:11:51;2.78;;;1.30;;
70787;SDS011;58391;47.752;19.100;2023-02-12T02:14:37;6.05;;;0.57;;
70787;SDS011;58391;47.752;19.100;2023-02-12T02:22:34;0.60;;;0.20;;
70787;SDS011;58391;47.752;19.100;2023-02-12T02:42:22;10.43;;;1.08;;
70787;SDS011;58391;47.752;19.100;2023-02-12T02:44:58;3.77;;;1.57;;
70787;SDS011;58391;47.752;19.100;2023-02-12T02:47:30;0.43;;;0.10;;
70787;SDS011;58391;47.752;19.100;2023-02-12T02:50:04;0.95;;;0.77;;
70787;SDS011;58391;47.752;19.100;2023-02-12T02:52:34;0.40;;;0.10;;
70787;SDS011;58391;47.752;19.100;2023-02-12T02:55:11;0.70;;;0.30;;
70787;SDS011;58391;47.752;19.100;2023-02-12T02:57:41;0.77;;;0.40;;
70787;SDS011;58391;47.752;19.100;2023-02-12T03:00:31;0.32;;;0.10;;
70787;SDS011;58391;47.752;19.100;2023-02-12T03:03:04;1.37;;;1.17;;
70787;SDS011;58391;47.752;19.100;2023-02-12T03:05:36;2.50;;;1.20;;
70787;SDS011;58391;47.752;19.100;2023-02-12T03:08:07;1.15;;;0.30;;
70787;SDS011;58391;47.752;19.100;2023-02-12T03:10:40;1.17;;;0.70;;
70787;SDS011;58391;47.752;19.100;2023-02-12T03:13:24;0.70;;;0.22;;
70787;SDS011;58391;47.752;19.100;2023-02-12T03:18:42;2.53;;;1.53;;
70787;SDS011;58391;47.752;19.100;2023-02-12T03:21:13;0.95;;;0.75;;
70787;SDS011;58391;47.752;19.100;2023-02-12T03:23:45;0.47;;;0.10;;
70787;SDS011;58391;47.752;19.100;2023-02-12T03:26:15;1.98;;;1.37;;
70787;SDS011;58391;47.752;19.100;2023-02-12T03:28:46;0.82;;;0.55;;
70787;SDS011;58391;47.752;19.100;2023-02-12T03:31:29;2.05;;;1.48;;
70787;SDS011;58391;47.752;19.100;2023-02-12T03:37:16;0.52;;;0.15;;
70787;SDS011;58391;47.752;19.100;2023-02-12T03:39:50;0.45;;;0.13;;
70787;SDS011;58391;47.752;19.100;2023-02-12T03:50:50;0.60;;;0.20;;
70787;SDS011;58391;47.752;19.100;2023-02-12T03:53:27;0.95;;;0.52;;
70787;SDS011;58391;47.752;19.100;2023-02-12T03:55:56;0.47;;;0.10;;
70787;SDS011;58391;47.752;19.100;2023-02-12T03:58:29;0.40;;;0.10;;
70787;SDS011;58391;47.752;19.100;2023-02-12T04:00:58;1.23;;;1.12;;
70787;SDS011;58391;47.752;19.100;2023-02-12T04:03:26;0.60;;;0.22;;
70787;SDS011;58391;47.752;19.100;2023-02-12T04:05:53;1.40;;;0.82;;
70787;SDS011;58391;47.752;19.100;2023-02-12T04:08:20;0.93;;;0.40;;
70787;SDS011;58391;47.752;19.100;2023-02-12T04:10:57;0.60;;;0.20;;
70787;SDS011;58391;47.752;19.100;2023-02-12T04:17:02;0.82;;;0.20;;
70787;SDS011;58391;47.752;19.100;2023-02-12T04:19:53;0.50;;;0.17;;
70787;SDS011;58391;47.752;19.100;2023-02-12T04:22:51;1.80;;;1.17;;
70787;SDS011;58391;47.752;19.100;2023-02-12T04:25:48;2.35;;;1.10;;
70787;SDS011;58391;47.752;19.100;2023-02-12T04:33:48;3.30;;;1.85;;
70787;SDS011;58391;47.752;19.100;2023-02-12T04:36:34;1.37;;;1.00;;
70787;SDS011;58391;47.752;19.100;2023-02-12T04:39:06;0.43;;;0.10;;
70787;SDS011;58391;47.752;19.100;2023-02-12T04:41:37;0.62;;;0.35;;
70787;SDS011;58391;47.752;19.100;2023-02-12T04:44:15;0.62;;;0.22;;
70787;SDS011;58391;47.752;19.100;2023-02-12T04:46:43;0.43;;;0.10;;
70787;SDS011;58391;47.752;19.100;2023-02-12T04:49:14;0.40;;;0.10;;
70787;SDS011;58391;47.752;19.100;2023-02-12T04:51:42;0.95;;;0.30;;
70787;SDS011;58391;47.752;19.100;2023-02-12T04:54:09;0.47;;;0.15;;
70787;SDS011;58391;47.752;19.100;2023-02-12T04:56:36;1.25;;;0.90;;
70787;SDS011;58391;47.752;19.100;2023-02-12T04:59:03;0.40;;;0.10;;
70787;SDS011;58391;47.752;19.100;2023-02-12T05:01:34;0.47;;;0.10;;
70787;SDS011;58391;47.752;19.100;2023-02-12T05:04:03;0.55;;;0.17;;
70787;SDS011;58391;47.752;19.100;2023-02-12T05:06:33;0.30;;;0.10;;
70787;SDS011;58391;47.752;19.100;2023-02-12T05:09:01;0.70;;;0.30;;
70787;SDS011;58391;47.752;19.100;2023-02-12T05:11:29;0.50;;;0.15;;
70787;SDS011;58391;47.752;19.100;2023-02-12T05:13:56;0.40;;;0.10;;
70787;SDS011;58391;47.752;19.100;2023-02-12T05:16:23;0.40;;;0.10;;
70787;SDS011;58391;47.752;19.100;2023-02-12T05:18:50;3.10;;;0.87;;
70787;SDS011;58391;47.752;19.100;2023-02-12T05:21:17;0.40;;;0.10;;
70787;SDS011;58391;47.752;19.100;2023-02-12T05:23:44;0.40;;;0.10;;
70787;SDS011;58391;47.752;19.100;2023-02-12T05:26:15;0.50;;;0.10;;
70787;SDS011;58391;47.752;19.100;2023-02-12T05:28:43;0.50;;;0.20;;
70787;SDS011;58391;47.752;19.100;2023-02-12T05:31:12;4.45;;;1.70;;
70787;SDS011;58391;47.752;19.100;2023-02-12T05:33:44;0.40;;;0.10;;
70787;SDS011;58391;47.752;19.100;2023-02-12T05:36:13;0.77;;;0.35;;
70787;SDS011;58391;47.752;19.100;2023-02-12T05:38:41;1.48;;;0.50;;
70787;SDS011;58391;47.752;19.100;2023-02-12T05:41:12;0.40;;;0.10;;
70787;SDS011;58391;47.752;19.100;2023-02-12T05:43:43;2.37;;;1.95;;
70787;SDS011;58391;47.752;19.100;2023-02-12T05:46:14;0.55;;;0.15;;
70787;SDS011;58391;47.752;19.100;2023-02-12T05:48:42;3.87;;;1.23;;
70787;SDS011;58391;47.752;19.100;2023-02-12T05:51:10;1.73;;;1.08;;
70787;SDS011;58391;47.752;19.100;2023-02-12T05:53:38;0.50;;;0.10;;
70787;SDS011;58391;47.752;19.100;2023-02-12T05:58:56;1.48;;;0.52;;
70787;SDS011;58391;47.752;19.100;2023-02-12T06:01:28;0.45;;;0.10;;
70787;SDS011;58391;47.752;19.100;2023-02-12T06:03:57;0.98;;;0.62;;
70787;SDS011;58391;47.752;19.100;2023-02-12T06:06:25;1.25;;;0.85;;
70787;SDS011;58391;47.752;19.100;2023-02-12T06:08:53;0.60;;;0.25;;
70787;SDS011;58391;47.752;19.100;2023-02-12T06:11:20;1.00;;;0.45;;
70787;SDS011;58391;47.752;19.100;2023-02-12T06:13:47;1.15;;;0.80;;
70787;SDS011;58391;47.752;19.100;2023-02-12T06:16:24;0.90;;;0.55;;
70787;SDS011;58391;47.752;19.100;2023-02-12T06:18:52;0.50;;;0.20;;
70787;SDS011;58391;47.752;19.100;2023-02-12T06:21:21;2.60;;;1.33;;
70787;SDS011;58391;47.752;19.100;2023-02-12T06:23:49;1.20;;;0.50;;
70787;SDS011;58391;47.752;19.100;2023-02-12T06:26:16;1.25;;;0.85;;
70787;SDS011;58391;47.752;19.100;2023-02-12T06:28:43;0.73;;;0.40;;
70787;SDS011;58391;47.752;19.100;2023-02-12T06:31:24;1.25;;;0.30;;
70787;SDS011;58391;47.752;19.100;2023-02-12T06:33:53;0.40;;;0.10;;
70787;SDS011;58391;47.752;19.100;2023-02-12T06:36:21;0.60;;;0.10;;
70787;SDS011;58391;47.752;19.100;2023-02-12T06:38:49;3.05;;;2.85;;
70787;SDS011;58391;47.752;19.100;2023-02-12T06:41:16;2.15;;;0.80;;
70787;SDS011;58391;47.752;19.100;2023-02-12T06:43:43;0.40;;;0.10;;
70787;SDS011;58391;47.752;19.100;2023-02-12T06:46:10;8.65;;;1.95;;
70787;SDS011;58391;47.752;19.100;2023-02-12T06:48:39;0.30;;;0.10;;
70787;SDS011;58391;47.752;19.100;2023-02-12T06:51:10;1.00;;;0.20;;
70787;SDS011;58391;47.752;19.100;2023-02-12T06:53:44;0.60;;;0.15;;
70787;SDS011;58391;47.752;19.100;2023-02-12T06:56:11;2.47;;;1.25;;
70787;SDS011;58391;47.752;19.100;2023-02-12T06:58:40;0.40;;;0.10;;
70787;SDS011;58391;47.752;19.100;2023-02-12T07:01:09;1.23;;;0.85;;
70787;SDS011;58391;47.752;19.100;2023-02-12T07:03:46;0.95;;;0.60;;
70787;SDS011;58391;47.752;19.100;2023-02-12T07:06:18;0.40;;;0.10;;
70787;SDS011;58391;47.752;19.100;2023-02-12T07:08:45;0.87;;;0.40;;
70787;SDS011;58391;47.752;19.100;2023-02-12T07:11:13;0.88;;;0.30;;
70787;SDS011;58391;47.752;19.100;2023-02-12T07:13:41;1.40;;;0.75;;
70787;SDS011;58391;47.752;19.100;2023-02-12T07:16:10;1.43;;;0.77;;
70787;SDS011;58391;47.752;19.100;2023-02-12T07:18:38;1.42;;;0.37;;
70787;SDS011;58391;47.752;19.100;2023-02-12T07:21:06;0.60;;;0.20;;
70787;SDS011;58391;47.752;19.100;2023-02-12T07:23:34;0.50;;;0.10;;
70787;SDS011;58391;47.752;19.100;2023-02-12T07:26:02;0.60;;;0.10;;
70787;SDS011;58391;47.752;19.100;2023-02-12T07:28:33;0.80;;;0.20;;
70787;SDS011;58391;47.752;19.100;2023-02-12T07:33:39;2.15;;;1.20;;
70787;SDS011;58391;47.752;19.100;2023-02-12T07:36:07;0.70;;;0.28;;
70787;SDS011;58391;47.752;19.100;2023-02-12T07:38:36;1.98;;;0.93;;
70787;SDS011;58391;47.752;19.100;2023-02-12T07:41:12;0.60;;;0.10;;
70787;SDS011;58391;47.752;19.100;2023-02-12T07:43:44;0.70;;;0.20;;
70787;SDS011;58391;47.752;19.100;2023-02-12T07:48:42;0.70;;;0.20;;
70787;SDS011;58391;47.752;19.100;2023-02-12T07:51:11;0.60;;;0.20;;
70787;SDS011;58391;47.752;19.100;2023-02-12T07:53:40;2.70;;;1.37;;
70787;SDS011;58391;47.752;19.100;2023-02-12T07:56:08;0.73;;;0.20;;
70787;SDS011;58391;47.752;19.100;2023-02-12T07:58:36;0.90;;;0.40;;
70787;SDS011;58391;47.752;19.100;2023-02-12T08:01:14;0.50;;;0.10;;
70787;SDS011;58391;47.752;19.100;2023-02-12T08:03:53;0.50;;;0.10;;
70787;SDS011;58391;47.752;19.100;2023-02-12T08:06:24;2.83;;;1.27;;
70787;SDS011;58391;47.752;19.100;2023-02-12T08:08:53;0.50;;;0.10;;
70787;SDS011;58391;47.752;19.100;2023-02-12T08:11:21;0.52;;;0.13;;
70787;SDS011;58391;47.752;19.100;2023-02-12T08:13:49;0.50;;;0.10;;
70787;SDS011;58391;47.752;19.100;2023-02-12T08:16:18;0.60;;;0.10;;
70787;SDS011;58391;47.752;19.100;2023-02-12T08:18:46;0.50;;;0.10;;
70787;SDS011;58391;47.752;19.100;2023-02-12T08:21:18;1.02;;;0.30;;
70787;SDS011;58391;47.752;19.100;2023-02-12T08:23:48;0.50;;;0.10;;
70787;SDS011;58391;47.752;19.100;2023-02-12T08:26:20;0.50;;;0.10;;
70787;SDS011;58391;47.752;19.100;2023-02-12T08:28:50;1.62;;;1.17;;
70787;SDS011;58391;47.752;19.100;2023-02-12T08:31:20;0.62;;;0.15;;
70787;SDS011;58391;47.752;19.100;2023-02-12T08:33:49;1.15;;;0.65;;
70787;SDS011;58391;47.752;19.100;2023-02-12T08:36:20;0.50;;;0.10;;
70787;SDS011;58391;47.752;19.100;2023-02-12T08:38:52;0.73;;;0.15;;
70787;SDS011;58391;47.752;19.100;2023-02-12T08:41:23;2.85;;;0.82;;
70787;SDS011;58391;47.752;19.100;2023-02-12T08:43:51;0.60;;;0.10;;
70787;SDS011;58391;47.752;19.100;2023-02-12T08:46:21;0.80;;;0.30;;
70787;SDS011;58391;47.752;19.100;2023-02-12T08:48:53;1.02;;;0.47;;
70787;SDS011;58391;47.752;19.100;2023-02-12T08:51:23;1.35;;;0.55;;
70787;SDS011;58391;47.752;19.100;2023-02-12T08:53:52;0.50;;;0.10;;
70787;SDS011;58391;47.752;19.100;2023-02-12T08:56:21;0.83;;;0.20;;
70787;SDS011;58391;47.752;19.100;2023-02-12T08:58:49;0.75;;;0.22;;
70787;SDS011;58391;47.752;19.100;2023-02-12T09:01:17;0.65;;;0.20;;
70787;SDS011;58391;47.752;19.100;2023-02-12T09:03:46;0.57;;;0.10;;
70787;SDS011;58391;47.752;19.100;2023-02-12T09:06:14;0.80;;;0.50;;
70787;SDS011;58391;47.752;19.100;2023-02-12T09:08:42;0.50;;;0.10;;
70787;SDS011;58391;47.752;19.100;2023-02-12T09:11:10;0.98;;;0.40;;
70787;SDS011;58391;47.752;19.100;2023-02-12T09:13:49;0.50;;;0.10;;
70787;SDS011;58391;47.752;19.100;2023-02-12T09:16:16;0.75;;;0.20;;
70787;SDS011;58391;47.752;19.100;2023-02-12T09:18:44;0.50;;;0.10;;
70787;SDS011;58391;47.752;19.100;2023-02-12T09:21:12;0.73;;;0.20;;
70787;SDS011;58391;47.752;19.100;2023-02-12T09:23:42;1.43;;;0.40;;
70787;SDS011;58391;47.752;19.100;2023-02-12T09:26:10;0.50;;;0.10;;
70787;SDS011;58391;47.752;19.100;2023-02-12T09:28:38;0.90;;;0.30;;
70787;SDS011;58391;47.752;19.100;2023-02-12T09:31:06;1.65;;;0.50;;
70787;SDS011;58391;47.752;19.100;2023-02-12T09:33:35;3.45;;;2.50;;
70787;SDS011;58391;47.752;19.100;2023-02-12T09:36:06;1.03;;;0.20;;
70787;SDS011;58391;47.752;19.100;2023-02-12T09:38:35;1.00;;;0.40;;
70787;SDS011;58391;47.752;19.100;2023-02-12T09:44:05;0.52;;;0.10;;
70787;SDS011;58391;47.752;19.100;2023-02-12T09:52:27;0.50;;;0.10;;
70787;SDS011;58391;47.752;19.100;2023-02-12T09:54:55;0.60;;;0.10;;
70787;SDS011;58391;47.752;19.100;2023-02-12T09:57:24;1.23;;;0.50;;
70787;SDS011;58391;47.752;19.100;2023-02-12T09:59:56;0.80;;;0.15;;
70787;SDS011;58391;47.752;19.100;2023-02-12T10:02:25;0.70;;;0.20;;
70787;SDS011;58391;47.752;19.100;2023-02-12T10:04:52;0.60;;;0.10;;
70787;SDS011;58391;47.752;19.100;2023-02-12T10:07:35;1.00;;;0.40;;
70787;SDS011;58391;47.752;19.100;2023-02-12T10:15:56;1.67;;;0.87;;
70787;SDS011;58391;47.752;19.100;2023-02-12T10:18:34;1.05;;;0.50;;
70787;SDS011;58391;47.752;19.100;2023-02-12T10:26:20;1.35;;;0.65;;
70787;SDS011;58391;47.752;19.100;2023-02-12T10:28:51;0.60;;;0.10;;
70787;SDS011;58391;47.752;19.100;2023-02-12T10:31:29;1.60;;;0.50;;
70787;SDS011;58391;47.752;19.100;2023-02-12T10:33:58;0.93;;;0.20;;
70787;SDS011;58391;47.752;19.100;2023-02-12T10:36:38;1.03;;;0.47;;
70787;SDS011;58391;47.752;19.100;2023-02-12T10:41:48;1.00;;;0.30;;
70787;SDS011;58391;47.752;19.100;2023-02-12T10:44:37;0.73;;;0.17;;
70787;SDS011;58391;47.752;19.100;2023-02-12T10:47:04;0.60;;;0.10;;
70787;SDS011;58391;47.752;19.100;2023-02-12T10:49:34;0.90;;;0.30;;
70787;SDS011;58391;47.752;19.100;2023-02-12T10:52:03;0.75;;;0.20;;
70787;SDS011;58391;47.752;19.100;2023-02-12T10:57:10;0.80;;;0.20;;
70787;SDS011;58391;47.752;19.100;2023-02-12T11:00:14;0.80;;;0.22;;
70787;SDS011;58391;47.752;19.100;2023-02-12T11:03:03;1.30;;;0.50;;
70787;SDS011;58391;47.752;19.100;2023-02-12T11:05:31;1.00;;;0.47;;
70787;SDS011;58391;47.752;19.100;2023-02-12T11:08:01;1.00;;;0.30;;
70787;SDS011;58391;47.752;19.100;2023-02-12T11:13:02;1.67;;;0.28;;
70787;SDS011;58391;47.752;19.100;2023-02-12T11:15:34;0.85;;;0.30;;
70787;SDS011;58391;47.752;19.100;2023-02-12T11:18:04;0.98;;;0.20;;
70787;SDS011;58391;47.752;19.100;2023-02-12T11:20:36;0.70;;;0.20;;
70787;SDS011;58391;47.752;19.100;2023-02-12T11:23:05;4.25;;;1.23;;
70787;SDS011;58391;47.752;19.100;2023-02-12T11:25:34;0.68;;;0.10;;
70787;SDS011;58391;47.752;19.100;2023-02-12T11:28:13;0.60;;;0.10;;
70787;SDS011;58391;47.752;19.100;2023-02-12T11:30:48;0.60;;;0.10;;
70787;SDS011;58391;47.752;19.100;2023-02-12T11:35:51;1.12;;;0.17;;
70787;SDS011;58391;47.752;19.100;2023-02-12T11:38:23;0.50;;;0.10;;
70787;SDS011;58391;47.752;19.100;2023-02-12T11:40:55;0.70;;;0.20;;
70787;SDS011;58391;47.752;19.100;2023-02-12T11:43:24;0.60;;;0.10;;
70787;SDS011;58391;47.752;19.100;2023-02-12T11:45:52;1.70;;;0.50;;
70787;SDS011;58391;47.752;19.100;2023-02-12T11:48:23;1.20;;;0.40;;
70787;SDS011;58391;47.752;19.100;2023-02-12T11:50:53;0.90;;;0.20;;
70787;SDS011;58391;47.752;19.100;2023-02-12T11:53:32;1.00;;;0.20;;
70787;SDS011;58391;47.752;19.100;2023-02-12T11:56:07;0.67;;;0.20;;
70787;SDS011;58391;47.752;19.100;2023-02-12T11:58:36;0.60;;;0.15;;
70787;SDS011;58391;47.752;19.100;2023-02-12T12:01:09;0.50;;;0.10;;
70787;SDS011;58391;47.752;19.100;2023-02-12T12:06:30;0.60;;;0.10;;
70787;SDS011;58391;47.752;19.100;2023-02-12T12:20:48;0.70;;;0.20;;
70787;SDS011;58391;47.752;19.100;2023-02-12T12:23:24;0.60;;;0.15;;
70787;SDS011;58391;47.752;19.100;2023-02-12T12:26:03;1.62;;;0.57;;
70787;SDS011;58391;47.752;19.100;2023-02-12T12:28:35;3.67;;;1.00;;
70787;SDS011;58391;47.752;19.100;2023-02-12T12:31:09;3.50;;;1.70;;
70787;SDS011;58391;47.752;19.100;2023-02-12T12:33:50;1.83;;;0.85;;
70787;SDS011;58391;47.752;19.100;2023-02-12T12:47:00;3.95;;;1.60;;
70787;SDS011;58391;47.752;19.100;2023-02-12T12:57:50;7.50;;;2.33;;
70787;SDS011;58391;47.752;19.100;2023-02-12T13:00:41;4.28;;;2.08;;
70787;SDS011;58391;47.752;19.100;2023-02-12T13:06:06;2.05;;;1.23;;
70787;SDS011;58391;47.752;19.100;2023-02-12T13:16:47;3.62;;;1.58;;
70787;SDS011;58391;47.752;19.100;2023-02-12T13:19:30;1.25;;;0.65;;
70787;SDS011;58391;47.752;19.100;2023-02-12T13:28:12;1.20;;;0.62;;
70787;SDS011;58391;47.752;19.100;2023-02-12T13:30:42;0.50;;;0.10;;
70787;SDS011;58391;47.752;19.100;2023-02-12T13:33:25;0.70;;;0.20;;
70787;SDS011;58391;47.752;19.100;2023-02-12T13:35:55;1.70;;;0.32;;
70787;SDS011;58391;47.752;19.100;2023-02-12T13:38:34;0.93;;;0.32;;
70787;SDS011;58391;47.752;19.100;2023-02-12T13:41:06;0.50;;;0.10;;
70787;SDS011;58391;47.752;19.100;2023-02-12T13:46:39;3.80;;;1.40;;
70787;SDS011;58391;47.752;19.100;2023-02-12T13:55:10;0.65;;;0.13;;
70787;SDS011;58391;47.752;19.100;2023-02-12T14:01:01;1.25;;;0.68;;
70787;SDS011;58391;47.752;19.100;2023-02-12T14:03:31;2.00;;;0.67;;
70787;SDS011;58391;47.752;19.100;2023-02-12T14:06:12;1.52;;;1.35;;
70787;SDS011;58391;47.752;19.100;2023-02-12T14:08:47;2.05;;;0.80;;
70787;SDS011;58391;47.752;19.100;2023-02-12T14:11:18;0.88;;;0.47;;
70787;SDS011;58391;47.752;19.100;2023-02-12T14:13:57;0.97;;;0.30;;
70787;SDS011;58391;47.752;19.100;2023-02-12T14:22:02;1.65;;;0.70;;
70787;SDS011;58391;47.752;19.100;2023-02-12T14:24:51;0.50;;;0.10;;
70787;SDS011;58391;47.752;19.100;2023-02-12T14:27:24;2.58;;;1.10;;
70787;SDS011;58391;47.752;19.100;2023-02-12T14:37:53;7.03;;;0.63;;
70787;SDS011;58391;47.752;19.100;2023-02-12T14:43:01;1.05;;;0.45;;
70787;SDS011;58391;47.752;19.100;2023-02-12T14:45:46;4.13;;;0.37;;
70787;SDS011;58391;47.752;19.100;2023-02-12T14:49:00;2.83;;;0.97;;
70787;SDS011;58391;47.752;19.100;2023-02-12T14:51:15;1.67;;;0.50;;
70787;SDS011;58391;47.752;19.100;2023-02-12T14:53:52;1.15;;;0.60;;
70787;SDS011;58391;47.752;19.100;2023-02-12T14:56:20;0.90;;;0.40;;
70787;SDS011;58391;47.752;19.100;2023-02-12T14:58:49;5.32;;;1.27;;
70787;SDS011;58391;47.752;19.100;2023-02-12T15:01:24;1.37;;;0.57;;
70787;SDS011;58391;47.752;19.100;2023-02-12T15:03:57;1.40;;;0.20;;
70787;SDS011;58391;47.752;19.100;2023-02-12T15:06:35;1.37;;;0.75;;
70787;SDS011;58391;47.752;19.100;2023-02-12T15:09:09;2.57;;;0.30;;
70787;SDS011;58391;47.752;19.100;2023-02-12T15:11:49;1.73;;;0.77;;
70787;SDS011;58391;47.752;19.100;2023-02-12T15:14:19;0.73;;;0.30;;
70787;SDS011;58391;47.752;19.100;2023-02-12T15:16:56;1.90;;;0.77;;
70787;SDS011;58391;47.752;19.100;2023-02-12T15:19:30;4.03;;;1.85;;
70787;SDS011;58391;47.752;19.100;2023-02-12T15:22:03;2.10;;;0.73;;
70787;SDS011;58391;47.752;19.100;2023-02-12T15:24:35;1.70;;;0.88;;
70787;SDS011;58391;47.752;19.100;2023-02-12T15:27:03;0.90;;;0.50;;
70787;SDS011;58391;47.752;19.100;2023-02-12T15:29:36;1.85;;;0.90;;
70787;SDS011;58391;47.752;19.100;2023-02-12T15:32:13;1.35;;;0.73;;
70787;SDS011;58391;47.752;19.100;2023-02-12T15:34:44;1.17;;;0.62;;
70787;SDS011;58391;47.752;19.100;2023-02-12T15:37:20;2.67;;;1.48;;
70787;SDS011;58391;47.752;19.100;2023-02-12T15:39:56;7.10;;;0.63;;
70787;SDS011;58391;47.752;19.100;2023-02-12T15:42:30;6.72;;;1.95;;
70787;SDS011;58391;47.752;19.100;2023-02-12T15:47:44;4.37;;;1.27;;
70787;SDS011;58391;47.752;19.100;2023-02-12T15:50:21;1.77;;;1.00;;
70787;SDS011;58391;47.752;19.100;2023-02-12T15:52:49;4.55;;;1.40;;
70787;SDS011;58391;47.752;19.100;2023-02-12T15:55:21;2.92;;;1.40;;
70787;SDS011;58391;47.752;19.100;2023-02-12T15:57:51;2.87;;;0.67;;
70787;SDS011;58391;47.752;19.100;2023-02-12T16:02:54;1.30;;;0.70;;
70787;SDS011;58391;47.752;19.100;2023-02-12T16:05:21;5.87;;;1.33;;
70787;SDS011;58391;47.752;19.100;2023-02-12T16:07:50;1.08;;;0.60;;
70787;SDS011;58391;47.752;19.100;2023-02-12T16:10:18;2.83;;;1.40;;
70787;SDS011;58391;47.752;19.100;2023-02-12T16:12:46;1.30;;;0.73;;
70787;SDS011;58391;47.752;19.100;2023-02-12T16:15:30;0.93;;;0.43;;
70787;SDS011;58391;47.752;19.100;2023-02-12T16:17:58;1.95;;;0.77;;
70787;SDS011;58391;47.752;19.100;2023-02-12T16:20:30;1.10;;;0.60;;
70787;SDS011;58391;47.752;19.100;2023-02-12T16:22:58;0.93;;;0.50;;
70787;SDS011;58391;47.752;19.100;2023-02-12T16:25:31;0.65;;;0.25;;
70787;SDS011;58391;47.752;19.100;2023-02-12T16:28:07;1.27;;;0.80;;
70787;SDS011;58391;47.752;19.100;2023-02-12T16:30:44;0.85;;;0.45;;
70787;SDS011;58391;47.752;19.100;2023-02-12T16:36:04;3.07;;;1.33;;
70787;SDS011;58391;47.752;19.100;2023-02-12T16:38:48;2.05;;;1.10;;
70787;SDS011;58391;47.752;19.100;2023-02-12T16:41:23;2.58;;;1.17;;
70787;SDS011;58391;47.752;19.100;2023-02-12T16:46:28;1.42;;;0.85;;
70787;SDS011;58391;47.752;19.100;2023-02-12T16:49:00;0.50;;;0.10;;
70787;SDS011;58391;47.752;19.100;2023-02-12T16:51:29;2.95;;;1.52;;
70787;SDS011;58391;47.752;19.100;2023-02-12T16:53:59;0.75;;;0.32;;
70787;SDS011;58391;47.752;19.100;2023-02-12T16:56:29;1.15;;;0.73;;
70787;SDS011;58391;47.752;19.100;2023-02-12T16:59:00;2.17;;;0.73;;
70787;SDS011;58391;47.752;19.100;2023-02-12T17:01:29;1.10;;;0.62;;
70787;SDS011;58391;47.752;19.100;2023-02-12T17:03:58;0.85;;;0.40;;
70787;SDS011;58391;47.752;19.100;2023-02-12T17:06:28;1.17;;;0.77;;
70787;SDS011;58391;47.752;19.100;2023-02-12T17:08:56;1.27;;;0.40;;
70787;SDS011;58391;47.752;19.100;2023-02-12T17:11:25;2.53;;;1.75;;
70787;SDS011;58391;47.752;19.100;2023-02-12T17:13:53;6.35;;;1.40;;
70787;SDS011;58391;47.752;19.100;2023-02-12T17:16:21;3.22;;;2.00;;
70787;SDS011;58391;47.752;19.100;2023-02-12T17:18:58;10.33;;;3.10;;
70787;SDS011;58391;47.752;19.100;2023-02-12T17:21:27;6.70;;;4.43;;
70787;SDS011;58391;47.752;19.100;2023-02-12T17:24:10;19.62;;;7.80;;
70787;SDS011;58391;47.752;19.100;2023-02-12T17:26:48;7.37;;;2.45;;
70787;SDS011;58391;47.752;19.100;2023-02-12T17:29:17;13.03;;;7.37;;
70787;SDS011;58391;47.752;19.100;2023-02-12T17:31:46;6.15;;;3.35;;
70787;SDS011;58391;47.752;19.100;2023-02-12T17:34:15;8.93;;;1.65;;
70787;SDS011;58391;47.752;19.100;2023-02-12T17:36:42;9.60;;;5.12;;
70787;SDS011;58391;47.752;19.100;2023-02-12T17:39:10;7.97;;;5.85;;
70787;SDS011;58391;47.752;19.100;2023-02-12T17:41:39;5.10;;;4.43;;
70787;SDS011;58391;47.752;19.100;2023-02-12T17:44:07;6.22;;;2.85;;
70787;SDS011;58391;47.752;19.100;2023-02-12T17:46:34;20.23;;;7.03;;
70787;SDS011;58391;47.752;19.100;2023-02-12T17:49:02;5.18;;;3.42;;
70787;SDS011;58391;47.752;19.100;2023-02-12T17:51:30;5.87;;;4.18;;
70787;SDS011;58391;47.752;19.100;2023-02-12T17:53:57;5.37;;;2.87;;
70787;SDS011;58391;47.752;19.100;2023-02-12T17:56:24;9.82;;;6.68;;